sensor_id;sensor_type;location;lat;lon;timestamp;temperature;humidity
3055;DHT22;1537;52.018;8.542;2023-05-10T00:03:09;15.90;99.90
3055;DHT22;1537;52.018;8.542;2023-05-10T00:06:33;15.90;99.90
3055;DHT22;1537;52.018;8.542;2023-05-10T00:09:56;15.80;99.90
3055;DHT22;1537;52.018;8.542;2023-05-10T00:13:20;15.80;99.90
3055;DHT22;1537;52.018;8.542;2023-05-10T00:16:44;15.80;99.90
3055;DHT22;1537;52.018;8.542;2023-05-10T00:20:10;15.60;99.90
3055;DHT22;1537;52.018;8.542;2023-05-10T00:23:34;15.50;99.90
3055;DHT22;1537;52.018;8.542;2023-05-10T00:26:57;15.40;99.90
3055;DHT22;1537;52.018;8.542;2023-05-10T00:30:21;15.40;99.90
3055;DHT22;1537;52.018;8.542;2023-05-10T00:33:45;15.40;99.90
3055;DHT22;1537;52.018;8.542;2023-05-10T00:37:10;15.30;99.90
3055;DHT22;1537;52.018;8.542;2023-05-10T00:40:35;15.30;99.90
3055;DHT22;1537;52.018;8.542;2023-05-10T00:44:03;15.30;99.90
3055;DHT22;1537;52.018;8.542;2023-05-10T00:47:27;15.20;99.90
3055;DHT22;1537;52.018;8.542;2023-05-10T00:50:52;15.30;99.90
3055;DHT22;1537;52.018;8.542;2023-05-10T00:54:17;15.30;99.90
3055;DHT22;1537;52.018;8.542;2023-05-10T00:57:41;15.40;99.90
3055;DHT22;1537;52.018;8.542;2023-05-10T01:01:06;15.40;99.90
3055;DHT22;1537;52.018;8.542;2023-05-10T01:04:30;15.40;99.90
3055;DHT22;1537;52.018;8.542;2023-05-10T01:07:53;15.40;99.90
3055;DHT22;1537;52.018;8.542;2023-05-10T01:11:18;15.30;99.90
3055;DHT22;1537;52.018;8.542;2023-05-10T01:14:43;15.30;99.90
3055;DHT22;1537;52.018;8.542;2023-05-10T01:18:08;15.30;99.90
3055;DHT22;1537;52.018;8.542;2023-05-10T01:21:38;15.30;99.90
3055;DHT22;1537;52.018;8.542;2023-05-10T01:25:14;15.30;99.90
3055;DHT22;1537;52.018;8.542;2023-05-10T01:32:43;15.40;99.90
3055;DHT22;1537;52.018;8.542;2023-05-10T01:36:15;15.40;99.90
3055;DHT22;1537;52.018;8.542;2023-05-10T01:39:44;15.50;99.90
3055;DHT22;1537;52.018;8.542;2023-05-10T01:43:14;15.50;99.90
3055;DHT22;1537;52.018;8.542;2023-05-10T01:46:40;15.40;99.90
3055;DHT22;1537;52.018;8.542;2023-05-10T01:50:10;15.40;99.90
3055;DHT22;1537;52.018;8.542;2023-05-10T01:53:35;15.40;99.90
3055;DHT22;1537;52.018;8.542;2023-05-10T01:57:03;15.30;99.90
3055;DHT22;1537;52.018;8.542;2023-05-10T02:00:29;15.30;99.90
3055;DHT22;1537;52.018;8.542;2023-05-10T02:03:53;15.20;99.90
3055;DHT22;1537;52.018;8.542;2023-05-10T02:07:20;15.10;99.90
3055;DHT22;1537;52.018;8.542;2023-05-10T02:10:46;15.00;99.90
3055;DHT22;1537;52.018;8.542;2023-05-10T02:14:11;15.00;99.90
3055;DHT22;1537;52.018;8.542;2023-05-10T02:17:37;14.90;99.90
3055;DHT22;1537;52.018;8.542;2023-05-10T02:21:02;14.90;99.90
3055;DHT22;1537;52.018;8.542;2023-05-10T02:24:28;14.80;99.90
3055;DHT22;1537;52.018;8.542;2023-05-10T02:27:55;14.80;99.90
3055;DHT22;1537;52.018;8.542;2023-05-10T02:31:19;14.70;99.90
3055;DHT22;1537;52.018;8.542;2023-05-10T02:34:44;14.70;99.90
3055;DHT22;1537;52.018;8.542;2023-05-10T02:38:14;14.70;99.90
3055;DHT22;1537;52.018;8.542;2023-05-10T02:41:41;14.70;99.90
3055;DHT22;1537;52.018;8.542;2023-05-10T02:45:10;14.70;99.90
3055;DHT22;1537;52.018;8.542;2023-05-10T02:48:36;14.70;99.90
3055;DHT22;1537;52.018;8.542;2023-05-10T02:52:05;14.70;99.90
3055;DHT22;1537;52.018;8.542;2023-05-10T02:55:40;14.80;99.90
3055;DHT22;1537;52.018;8.542;2023-05-10T02:59:05;14.80;99.90
3055;DHT22;1537;52.018;8.542;2023-05-10T03:02:29;14.80;99.90
3055;DHT22;1537;52.018;8.542;2023-05-10T03:05:54;14.60;99.90
3055;DHT22;1537;52.018;8.542;2023-05-10T03:09:18;14.60;99.90
3055;DHT22;1537;52.018;8.542;2023-05-10T03:12:52;14.50;99.90
3055;DHT22;1537;52.018;8.542;2023-05-10T03:16:27;14.60;99.90
3055;DHT22;1537;52.018;8.542;2023-05-10T03:19:55;14.60;99.90
3055;DHT22;1537;52.018;8.542;2023-05-10T03:23:27;14.60;99.90
3055;DHT22;1537;52.018;8.542;2023-05-10T03:26:55;14.50;99.90
3055;DHT22;1537;52.018;8.542;2023-05-10T03:30:20;14.40;99.90
3055;DHT22;1537;52.018;8.542;2023-05-10T03:33:49;14.40;99.90
3055;DHT22;1537;52.018;8.542;2023-05-10T03:37:18;14.30;99.90
3055;DHT22;1537;52.018;8.542;2023-05-10T03:40:42;14.40;99.90
3055;DHT22;1537;52.018;8.542;2023-05-10T03:44:05;14.30;99.90
3055;DHT22;1537;52.018;8.542;2023-05-10T03:47:29;14.20;99.90
3055;DHT22;1537;52.018;8.542;2023-05-10T03:50:55;14.10;99.90
3055;DHT22;1537;52.018;8.542;2023-05-10T03:54:19;14.10;99.90
3055;DHT22;1537;52.018;8.542;2023-05-10T03:57:43;14.00;99.90
3055;DHT22;1537;52.018;8.542;2023-05-10T04:01:07;14.10;99.90
3055;DHT22;1537;52.018;8.542;2023-05-10T04:04:32;14.10;99.90
3055;DHT22;1537;52.018;8.542;2023-05-10T04:07:57;14.10;99.90
3055;DHT22;1537;52.018;8.542;2023-05-10T04:11:21;14.10;99.90
3055;DHT22;1537;52.018;8.542;2023-05-10T04:14:44;14.10;99.90
3055;DHT22;1537;52.018;8.542;2023-05-10T04:18:08;14.00;99.90
3055;DHT22;1537;52.018;8.542;2023-05-10T04:21:32;13.90;99.90
3055;DHT22;1537;52.018;8.542;2023-05-10T04:24:57;13.90;99.90
3055;DHT22;1537;52.018;8.542;2023-05-10T04:28:21;13.80;99.90
3055;DHT22;1537;52.018;8.542;2023-05-10T04:31:44;13.80;99.90
3055;DHT22;1537;52.018;8.542;2023-05-10T04:35:08;13.80;99.90
3055;DHT22;1537;52.018;8.542;2023-05-10T04:38:33;13.70;99.90
3055;DHT22;1537;52.018;8.542;2023-05-10T04:41:58;13.60;99.90
3055;DHT22;1537;52.018;8.542;2023-05-10T04:45:22;13.60;99.90
3055;DHT22;1537;52.018;8.542;2023-05-10T04:48:45;13.50;99.90
3055;DHT22;1537;52.018;8.542;2023-05-10T04:52:09;13.60;99.90
3055;DHT22;1537;52.018;8.542;2023-05-10T04:55:33;13.50;99.90
3055;DHT22;1537;52.018;8.542;2023-05-10T04:58:59;13.60;99.90
3055;DHT22;1537;52.018;8.542;2023-05-10T05:02:22;13.70;99.90
3055;DHT22;1537;52.018;8.542;2023-05-10T05:05:47;13.70;99.90
3055;DHT22;1537;52.018;8.542;2023-05-10T05:09:10;13.70;99.90
3055;DHT22;1537;52.018;8.542;2023-05-10T05:12:35;13.70;99.90
3055;DHT22;1537;52.018;8.542;2023-05-10T05:16:02;13.80;99.90
3055;DHT22;1537;52.018;8.542;2023-05-10T05:19:26;13.90;99.90
3055;DHT22;1537;52.018;8.542;2023-05-10T05:22:49;13.80;99.90
3055;DHT22;1537;52.018;8.542;2023-05-10T05:26:13;13.70;99.90
3055;DHT22;1537;52.018;8.542;2023-05-10T05:29:37;13.80;99.90
3055;DHT22;1537;52.018;8.542;2023-05-10T05:33:02;13.80;99.90
3055;DHT22;1537;52.018;8.542;2023-05-10T05:36:26;13.80;99.90
3055;DHT22;1537;52.018;8.542;2023-05-10T05:39:50;13.80;99.90
3055;DHT22;1537;52.018;8.542;2023-05-10T05:43:14;13.70;99.90
3055;DHT22;1537;52.018;8.542;2023-05-10T05:46:37;13.70;99.90
3055;DHT22;1537;52.018;8.542;2023-05-10T05:50:03;13.70;99.90
3055;DHT22;1537;52.018;8.542;2023-05-10T05:53:27;13.70;99.90
3055;DHT22;1537;52.018;8.542;2023-05-10T05:56:50;13.70;99.90
3055;DHT22;1537;52.018;8.542;2023-05-10T06:00:14;13.70;99.90
3055;DHT22;1537;52.018;8.542;2023-05-10T06:03:40;13.70;99.90
3055;DHT22;1537;52.018;8.542;2023-05-10T06:07:06;13.70;99.90
3055;DHT22;1537;52.018;8.542;2023-05-10T06:10:29;13.70;99.90
3055;DHT22;1537;52.018;8.542;2023-05-10T06:13:53;13.70;99.90
3055;DHT22;1537;52.018;8.542;2023-05-10T06:17:18;13.70;99.90
3055;DHT22;1537;52.018;8.542;2023-05-10T06:20:41;13.60;99.90
3055;DHT22;1537;52.018;8.542;2023-05-10T06:24:07;13.60;99.90
3055;DHT22;1537;52.018;8.542;2023-05-10T06:27:31;13.60;99.90
3055;DHT22;1537;52.018;8.542;2023-05-10T06:30:54;13.70;99.90
3055;DHT22;1537;52.018;8.542;2023-05-10T06:34:18;13.70;99.90
3055;DHT22;1537;52.018;8.542;2023-05-10T06:37:41;13.70;99.90
3055;DHT22;1537;52.018;8.542;2023-05-10T06:41:07;13.80;99.90
3055;DHT22;1537;52.018;8.542;2023-05-10T06:44:33;13.80;99.90
3055;DHT22;1537;52.018;8.542;2023-05-10T06:47:57;13.80;99.90
3055;DHT22;1537;52.018;8.542;2023-05-10T06:51:21;13.90;99.90
3055;DHT22;1537;52.018;8.542;2023-05-10T06:54:44;13.80;99.90
3055;DHT22;1537;52.018;8.542;2023-05-10T06:58:09;13.90;99.90
3055;DHT22;1537;52.018;8.542;2023-05-10T07:01:33;13.90;99.90
3055;DHT22;1537;52.018;8.542;2023-05-10T07:04:57;14.00;99.90
3055;DHT22;1537;52.018;8.542;2023-05-10T07:08:36;14.00;99.90
3055;DHT22;1537;52.018;8.542;2023-05-10T07:12:00;14.00;99.90
3055;DHT22;1537;52.018;8.542;2023-05-10T07:15:25;14.10;99.90
3055;DHT22;1537;52.018;8.542;2023-05-10T07:18:49;14.20;99.90
3055;DHT22;1537;52.018;8.542;2023-05-10T07:22:13;14.30;99.90
3055;DHT22;1537;52.018;8.542;2023-05-10T07:25:36;14.30;99.90
3055;DHT22;1537;52.018;8.542;2023-05-10T07:29:00;14.40;99.90
3055;DHT22;1537;52.018;8.542;2023-05-10T07:32:26;14.50;99.90
3055;DHT22;1537;52.018;8.542;2023-05-10T07:35:50;14.40;99.90
3055;DHT22;1537;52.018;8.542;2023-05-10T07:39:14;14.50;99.90
3055;DHT22;1537;52.018;8.542;2023-05-10T07:42:47;14.50;99.90
3055;DHT22;1537;52.018;8.542;2023-05-10T07:46:11;14.60;99.90
3055;DHT22;1537;52.018;8.542;2023-05-10T07:49:36;14.70;99.90
3055;DHT22;1537;52.018;8.542;2023-05-10T07:53:00;14.70;99.90
3055;DHT22;1537;52.018;8.542;2023-05-10T07:56:26;14.60;99.90
3055;DHT22;1537;52.018;8.542;2023-05-10T07:59:51;14.80;99.90
3055;DHT22;1537;52.018;8.542;2023-05-10T08:03:15;14.80;99.90
3055;DHT22;1537;52.018;8.542;2023-05-10T08:06:40;14.90;99.90
3055;DHT22;1537;52.018;8.542;2023-05-10T08:10:05;14.80;99.90
3055;DHT22;1537;52.018;8.542;2023-05-10T08:13:29;14.80;99.90
3055;DHT22;1537;52.018;8.542;2023-05-10T08:16:53;14.80;99.90
3055;DHT22;1537;52.018;8.542;2023-05-10T08:20:17;14.90;99.90
3055;DHT22;1537;52.018;8.542;2023-05-10T08:23:43;15.20;99.90
3055;DHT22;1537;52.018;8.542;2023-05-10T08:27:07;15.60;99.90
3055;DHT22;1537;52.018;8.542;2023-05-10T08:30:31;15.90;99.90
3055;DHT22;1537;52.018;8.542;2023-05-10T08:33:55;16.10;99.90
3055;DHT22;1537;52.018;8.542;2023-05-10T08:37:19;16.50;99.90
3055;DHT22;1537;52.018;8.542;2023-05-10T08:40:44;16.70;99.90
3055;DHT22;1537;52.018;8.542;2023-05-10T08:44:08;16.60;99.90
3055;DHT22;1537;52.018;8.542;2023-05-10T08:47:35;16.50;99.90
3055;DHT22;1537;52.018;8.542;2023-05-10T08:51:01;16.40;99.90
3055;DHT22;1537;52.018;8.542;2023-05-10T08:54:26;16.40;99.90
3055;DHT22;1537;52.018;8.542;2023-05-10T08:57:51;16.40;99.90
3055;DHT22;1537;52.018;8.542;2023-05-10T09:01:16;16.00;99.90
3055;DHT22;1537;52.018;8.542;2023-05-10T09:04:41;15.50;99.90
3055;DHT22;1537;52.018;8.542;2023-05-10T09:08:06;15.30;99.90
3055;DHT22;1537;52.018;8.542;2023-05-10T09:11:29;15.20;99.90
3055;DHT22;1537;52.018;8.542;2023-05-10T09:14:55;15.30;99.90
3055;DHT22;1537;52.018;8.542;2023-05-10T09:18:21;15.30;99.90
3055;DHT22;1537;52.018;8.542;2023-05-10T09:21:46;15.30;99.90
3055;DHT22;1537;52.018;8.542;2023-05-10T09:25:12;15.50;99.90
3055;DHT22;1537;52.018;8.542;2023-05-10T09:28:51;15.70;99.90
3055;DHT22;1537;52.018;8.542;2023-05-10T09:32:16;15.80;99.90
3055;DHT22;1537;52.018;8.542;2023-05-10T09:35:40;15.90;99.90
3055;DHT22;1537;52.018;8.542;2023-05-10T09:39:04;16.30;99.90
3055;DHT22;1537;52.018;8.542;2023-05-10T09:42:28;16.70;99.90
3055;DHT22;1537;52.018;8.542;2023-05-10T09:45:52;17.00;99.90
3055;DHT22;1537;52.018;8.542;2023-05-10T09:49:17;17.20;99.90
3055;DHT22;1537;52.018;8.542;2023-05-10T09:52:48;17.80;99.90
3055;DHT22;1537;52.018;8.542;2023-05-10T09:56:12;18.30;99.90
3055;DHT22;1537;52.018;8.542;2023-05-10T09:59:42;18.70;99.90
3055;DHT22;1537;52.018;8.542;2023-05-10T10:03:11;19.10;99.90
3055;DHT22;1537;52.018;8.542;2023-05-10T10:06:37;19.40;99.90
3055;DHT22;1537;52.018;8.542;2023-05-10T10:10:02;19.50;99.90
3055;DHT22;1537;52.018;8.542;2023-05-10T10:13:27;20.40;99.90
3055;DHT22;1537;52.018;8.542;2023-05-10T10:16:51;22.20;99.90
3055;DHT22;1537;52.018;8.542;2023-05-10T10:20:29;22.40;99.90
3055;DHT22;1537;52.018;8.542;2023-05-10T10:23:54;22.40;99.90
3055;DHT22;1537;52.018;8.542;2023-05-10T10:27:23;22.10;99.90
3055;DHT22;1537;52.018;8.542;2023-05-10T10:30:50;24.00;99.90
3055;DHT22;1537;52.018;8.542;2023-05-10T10:34:27;25.50;98.40
3055;DHT22;1537;52.018;8.542;2023-05-10T10:37:51;26.30;94.10
3055;DHT22;1537;52.018;8.542;2023-05-10T10:41:29;26.00;93.30
3055;DHT22;1537;52.018;8.542;2023-05-10T10:45:11;25.70;94.50
3055;DHT22;1537;52.018;8.542;2023-05-10T10:48:36;26.10;93.50
3055;DHT22;1537;52.018;8.542;2023-05-10T10:52:22;26.70;91.80
3055;DHT22;1537;52.018;8.542;2023-05-10T10:55:48;26.00;91.00
3055;DHT22;1537;52.018;8.542;2023-05-10T10:59:26;25.00;91.70
3055;DHT22;1537;52.018;8.542;2023-05-10T11:02:51;24.10;92.10
3055;DHT22;1537;52.018;8.542;2023-05-10T11:06:28;23.20;93.00
3055;DHT22;1537;52.018;8.542;2023-05-10T11:09:54;22.20;94.60
3055;DHT22;1537;52.018;8.542;2023-05-10T11:13:27;21.60;95.60
3055;DHT22;1537;52.018;8.542;2023-05-10T11:16:52;21.10;96.60
3055;DHT22;1537;52.018;8.542;2023-05-10T11:20:17;21.10;97.00
3055;DHT22;1537;52.018;8.542;2023-05-10T11:23:49;20.70;98.10
3055;DHT22;1537;52.018;8.542;2023-05-10T11:27:13;20.40;98.40
3055;DHT22;1537;52.018;8.542;2023-05-10T11:30:37;20.30;99.30
3055;DHT22;1537;52.018;8.542;2023-05-10T11:34:03;20.20;99.30
3055;DHT22;1537;52.018;8.542;2023-05-10T11:37:28;20.00;99.90
3055;DHT22;1537;52.018;8.542;2023-05-10T11:40:54;20.10;99.90
3055;DHT22;1537;52.018;8.542;2023-05-10T11:44:18;20.30;99.90
3055;DHT22;1537;52.018;8.542;2023-05-10T11:47:42;20.20;99.90
3055;DHT22;1537;52.018;8.542;2023-05-10T11:51:08;20.40;99.90
3055;DHT22;1537;52.018;8.542;2023-05-10T11:54:32;20.90;99.90
3055;DHT22;1537;52.018;8.542;2023-05-10T11:58:01;20.90;99.90
3055;DHT22;1537;52.018;8.542;2023-05-10T12:01:26;20.60;99.90
3055;DHT22;1537;52.018;8.542;2023-05-10T12:04:53;20.30;99.90
3055;DHT22;1537;52.018;8.542;2023-05-10T12:08:22;20.10;99.80
3055;DHT22;1537;52.018;8.542;2023-05-10T12:11:46;19.50;99.90
3055;DHT22;1537;52.018;8.542;2023-05-10T12:15:11;19.00;99.90
3055;DHT22;1537;52.018;8.542;2023-05-10T12:18:39;18.80;99.90
3055;DHT22;1537;52.018;8.542;2023-05-10T12:22:04;18.30;99.90
3055;DHT22;1537;52.018;8.542;2023-05-10T12:25:31;17.90;99.90
3055;DHT22;1537;52.018;8.542;2023-05-10T12:29:11;17.50;99.90
3055;DHT22;1537;52.018;8.542;2023-05-10T12:32:39;17.40;99.90
3055;DHT22;1537;52.018;8.542;2023-05-10T12:36:03;17.30;99.90
3055;DHT22;1537;52.018;8.542;2023-05-10T12:39:38;17.50;99.90
3055;DHT22;1537;52.018;8.542;2023-05-10T12:43:03;17.80;99.90
3055;DHT22;1537;52.018;8.542;2023-05-10T12:46:28;18.10;99.90
3055;DHT22;1537;52.018;8.542;2023-05-10T12:49:52;18.20;99.90
3055;DHT22;1537;52.018;8.542;2023-05-10T12:53:16;18.20;99.90
3055;DHT22;1537;52.018;8.542;2023-05-10T12:56:40;18.20;99.90
3055;DHT22;1537;52.018;8.542;2023-05-10T13:00:07;18.20;99.90
3055;DHT22;1537;52.018;8.542;2023-05-10T13:03:31;18.10;99.90
3055;DHT22;1537;52.018;8.542;2023-05-10T13:06:55;18.30;99.90
3055;DHT22;1537;52.018;8.542;2023-05-10T13:10:20;18.90;99.90
3055;DHT22;1537;52.018;8.542;2023-05-10T13:13:46;19.30;99.90
3055;DHT22;1537;52.018;8.542;2023-05-10T13:17:11;19.60;99.90
3055;DHT22;1537;52.018;8.542;2023-05-10T13:20:34;19.70;99.90
3055;DHT22;1537;52.018;8.542;2023-05-10T13:23:58;19.80;99.90
3055;DHT22;1537;52.018;8.542;2023-05-10T13:27:22;19.60;99.90
3055;DHT22;1537;52.018;8.542;2023-05-10T13:30:46;19.50;99.90
3055;DHT22;1537;52.018;8.542;2023-05-10T13:34:11;19.60;99.90
3055;DHT22;1537;52.018;8.542;2023-05-10T13:37:34;19.60;99.90
3055;DHT22;1537;52.018;8.542;2023-05-10T13:40:59;19.00;99.90
3055;DHT22;1537;52.018;8.542;2023-05-10T13:44:23;18.10;99.90
3055;DHT22;1537;52.018;8.542;2023-05-10T13:47:46;17.60;99.90
3055;DHT22;1537;52.018;8.542;2023-05-10T13:51:11;17.00;99.90
3055;DHT22;1537;52.018;8.542;2023-05-10T13:54:35;16.60;99.90
3055;DHT22;1537;52.018;8.542;2023-05-10T13:58:00;16.50;99.90
3055;DHT22;1537;52.018;8.542;2023-05-10T14:01:24;16.30;99.90
3055;DHT22;1537;52.018;8.542;2023-05-10T14:04:47;16.20;99.90
3055;DHT22;1537;52.018;8.542;2023-05-10T14:08:12;16.10;99.90
3055;DHT22;1537;52.018;8.542;2023-05-10T14:11:36;16.20;99.90
3055;DHT22;1537;52.018;8.542;2023-05-10T14:15:04;16.20;99.90
3055;DHT22;1537;52.018;8.542;2023-05-10T14:18:29;16.20;99.90
3055;DHT22;1537;52.018;8.542;2023-05-10T14:21:52;16.20;99.90
3055;DHT22;1537;52.018;8.542;2023-05-10T14:25:18;16.20;99.90
3055;DHT22;1537;52.018;8.542;2023-05-10T14:28:42;16.30;99.90
3055;DHT22;1537;52.018;8.542;2023-05-10T14:32:05;16.30;99.90
3055;DHT22;1537;52.018;8.542;2023-05-10T14:35:29;16.30;99.90
3055;DHT22;1537;52.018;8.542;2023-05-10T14:38:54;16.40;99.90
3055;DHT22;1537;52.018;8.542;2023-05-10T14:42:19;16.50;99.90
3055;DHT22;1537;52.018;8.542;2023-05-10T14:45:42;16.60;99.90
3055;DHT22;1537;52.018;8.542;2023-05-10T14:49:07;16.70;99.90
3055;DHT22;1537;52.018;8.542;2023-05-10T14:52:30;17.00;99.90
3055;DHT22;1537;52.018;8.542;2023-05-10T14:55:55;17.00;99.90
3055;DHT22;1537;52.018;8.542;2023-05-10T14:59:21;17.10;99.90
3055;DHT22;1537;52.018;8.542;2023-05-10T15:02:45;17.20;99.90
3055;DHT22;1537;52.018;8.542;2023-05-10T15:06:11;17.30;99.90
3055;DHT22;1537;52.018;8.542;2023-05-10T15:09:35;17.40;99.90
3055;DHT22;1537;52.018;8.542;2023-05-10T15:12:59;17.60;99.90
3055;DHT22;1537;52.018;8.542;2023-05-10T15:16:24;17.70;99.90
3055;DHT22;1537;52.018;8.542;2023-05-10T15:19:48;17.70;99.90
3055;DHT22;1537;52.018;8.542;2023-05-10T15:23:12;17.80;99.90
3055;DHT22;1537;52.018;8.542;2023-05-10T15:26:36;17.70;99.90
3055;DHT22;1537;52.018;8.542;2023-05-10T15:30:00;17.70;99.90
3055;DHT22;1537;52.018;8.542;2023-05-10T15:33:25;17.80;99.90
3055;DHT22;1537;52.018;8.542;2023-05-10T15:36:49;17.90;99.90
3055;DHT22;1537;52.018;8.542;2023-05-10T15:40:13;17.80;99.90
3055;DHT22;1537;52.018;8.542;2023-05-10T15:43:36;17.90;99.90
3055;DHT22;1537;52.018;8.542;2023-05-10T15:47:00;17.80;99.90
3055;DHT22;1537;52.018;8.542;2023-05-10T15:50:26;17.80;99.90
3055;DHT22;1537;52.018;8.542;2023-05-10T15:53:50;17.70;99.90
3055;DHT22;1537;52.018;8.542;2023-05-10T15:57:28;17.70;99.90
3055;DHT22;1537;52.018;8.542;2023-05-10T16:00:51;17.60;99.90
3055;DHT22;1537;52.018;8.542;2023-05-10T16:04:15;17.50;99.90
3055;DHT22;1537;52.018;8.542;2023-05-10T16:07:42;17.50;99.90
3055;DHT22;1537;52.018;8.542;2023-05-10T16:11:06;17.40;99.90
3055;DHT22;1537;52.018;8.542;2023-05-10T16:14:30;17.10;99.90
3055;DHT22;1537;52.018;8.542;2023-05-10T16:17:56;16.90;99.90
3055;DHT22;1537;52.018;8.542;2023-05-10T16:21:20;16.70;99.90
3055;DHT22;1537;52.018;8.542;2023-05-10T16:24:45;16.50;99.90
3055;DHT22;1537;52.018;8.542;2023-05-10T16:28:09;16.40;99.90
3055;DHT22;1537;52.018;8.542;2023-05-10T16:31:32;16.10;99.90
3055;DHT22;1537;52.018;8.542;2023-05-10T16:34:57;15.70;99.90
3055;DHT22;1537;52.018;8.542;2023-05-10T16:38:21;15.60;99.90
3055;DHT22;1537;52.018;8.542;2023-05-10T16:41:46;15.50;99.90
3055;DHT22;1537;52.018;8.542;2023-05-10T16:45:10;15.40;99.90
3055;DHT22;1537;52.018;8.542;2023-05-10T16:48:34;15.40;99.90
3055;DHT22;1537;52.018;8.542;2023-05-10T16:51:58;15.30;99.90
3055;DHT22;1537;52.018;8.542;2023-05-10T16:55:22;15.20;99.90
3055;DHT22;1537;52.018;8.542;2023-05-10T16:58:52;15.10;99.90
3055;DHT22;1537;52.018;8.542;2023-05-10T17:02:16;15.10;99.90
3055;DHT22;1537;52.018;8.542;2023-05-10T17:05:39;14.90;99.90
3055;DHT22;1537;52.018;8.542;2023-05-10T17:09:04;14.80;99.90
3055;DHT22;1537;52.018;8.542;2023-05-10T17:12:28;14.80;99.90
3055;DHT22;1537;52.018;8.542;2023-05-10T17:15:53;14.70;99.90
3055;DHT22;1537;52.018;8.542;2023-05-10T17:19:17;14.60;99.90
3055;DHT22;1537;52.018;8.542;2023-05-10T17:22:41;14.60;99.90
3055;DHT22;1537;52.018;8.542;2023-05-10T17:26:06;14.60;99.90
3055;DHT22;1537;52.018;8.542;2023-05-10T17:29:32;14.60;99.90
3055;DHT22;1537;52.018;8.542;2023-05-10T17:32:58;14.40;99.90
3055;DHT22;1537;52.018;8.542;2023-05-10T17:36:22;14.10;99.90
3055;DHT22;1537;52.018;8.542;2023-05-10T17:39:46;14.10;99.90
3055;DHT22;1537;52.018;8.542;2023-05-10T17:43:12;14.10;99.90
3055;DHT22;1537;52.018;8.542;2023-05-10T17:46:46;14.10;99.90
3055;DHT22;1537;52.018;8.542;2023-05-10T17:50:15;14.30;99.90
3055;DHT22;1537;52.018;8.542;2023-05-10T17:53:41;14.40;99.90
3055;DHT22;1537;52.018;8.542;2023-05-10T17:57:07;14.50;99.90
3055;DHT22;1537;52.018;8.542;2023-05-10T18:00:34;14.50;99.90
3055;DHT22;1537;52.018;8.542;2023-05-10T18:04:00;14.50;99.90
3055;DHT22;1537;52.018;8.542;2023-05-10T18:07:28;14.40;99.90
3055;DHT22;1537;52.018;8.542;2023-05-10T18:11:00;14.40;99.90
3055;DHT22;1537;52.018;8.542;2023-05-10T18:14:25;14.50;99.90
3055;DHT22;1537;52.018;8.542;2023-05-10T18:18:04;14.60;99.90
3055;DHT22;1537;52.018;8.542;2023-05-10T18:21:28;14.60;99.90
3055;DHT22;1537;52.018;8.542;2023-05-10T18:24:55;14.60;99.90
3055;DHT22;1537;52.018;8.542;2023-05-10T18:28:19;14.60;99.90
3055;DHT22;1537;52.018;8.542;2023-05-10T18:31:45;14.50;99.90
3055;DHT22;1537;52.018;8.542;2023-05-10T18:35:14;14.40;99.90
3055;DHT22;1537;52.018;8.542;2023-05-10T18:38:38;14.50;99.90
3055;DHT22;1537;52.018;8.542;2023-05-10T18:42:07;14.50;99.90
3055;DHT22;1537;52.018;8.542;2023-05-10T18:45:32;14.50;99.90
3055;DHT22;1537;52.018;8.542;2023-05-10T18:48:56;14.50;99.90
3055;DHT22;1537;52.018;8.542;2023-05-10T18:52:20;14.40;99.90
3055;DHT22;1537;52.018;8.542;2023-05-10T18:55:45;14.50;99.90
3055;DHT22;1537;52.018;8.542;2023-05-10T18:59:11;14.50;99.90
3055;DHT22;1537;52.018;8.542;2023-05-10T19:02:36;14.50;99.90
3055;DHT22;1537;52.018;8.542;2023-05-10T19:06:03;14.50;99.90
3055;DHT22;1537;52.018;8.542;2023-05-10T19:09:28;14.50;99.90
3055;DHT22;1537;52.018;8.542;2023-05-10T19:12:54;14.50;99.90
3055;DHT22;1537;52.018;8.542;2023-05-10T19:16:22;14.40;99.90
3055;DHT22;1537;52.018;8.542;2023-05-10T19:19:46;14.40;99.90
3055;DHT22;1537;52.018;8.542;2023-05-10T19:23:11;14.40;99.90
3055;DHT22;1537;52.018;8.542;2023-05-10T19:26:37;14.40;99.90
3055;DHT22;1537;52.018;8.542;2023-05-10T19:30:01;14.30;99.90
3055;DHT22;1537;52.018;8.542;2023-05-10T19:33:26;14.20;99.90
3055;DHT22;1537;52.018;8.542;2023-05-10T19:36:53;14.10;99.90
3055;DHT22;1537;52.018;8.542;2023-05-10T19:40:26;14.10;99.90
3055;DHT22;1537;52.018;8.542;2023-05-10T19:43:54;14.20;99.90
3055;DHT22;1537;52.018;8.542;2023-05-10T19:47:19;14.20;99.90
3055;DHT22;1537;52.018;8.542;2023-05-10T19:50:45;14.30;99.90
3055;DHT22;1537;52.018;8.542;2023-05-10T19:54:09;14.20;99.90
3055;DHT22;1537;52.018;8.542;2023-05-10T19:57:39;14.20;99.90
3055;DHT22;1537;52.018;8.542;2023-05-10T20:01:03;14.20;99.90
3055;DHT22;1537;52.018;8.542;2023-05-10T20:04:29;14.30;99.90
3055;DHT22;1537;52.018;8.542;2023-05-10T20:07:56;14.40;99.90
3055;DHT22;1537;52.018;8.542;2023-05-10T20:11:28;14.40;99.90
3055;DHT22;1537;52.018;8.542;2023-05-10T20:14:58;14.40;99.90
3055;DHT22;1537;52.018;8.542;2023-05-10T20:18:24;14.30;99.90
3055;DHT22;1537;52.018;8.542;2023-05-10T20:21:52;14.30;99.90
3055;DHT22;1537;52.018;8.542;2023-05-10T20:25:21;14.20;99.90
3055;DHT22;1537;52.018;8.542;2023-05-10T20:28:45;14.10;99.90
3055;DHT22;1537;52.018;8.542;2023-05-10T20:32:08;14.10;99.90
3055;DHT22;1537;52.018;8.542;2023-05-10T20:35:32;14.00;99.90
3055;DHT22;1537;52.018;8.542;2023-05-10T20:38:56;14.00;99.90
3055;DHT22;1537;52.018;8.542;2023-05-10T20:42:22;14.00;99.90
3055;DHT22;1537;52.018;8.542;2023-05-10T20:45:46;13.70;99.90
3055;DHT22;1537;52.018;8.542;2023-05-10T20:49:11;13.50;99.90
3055;DHT22;1537;52.018;8.542;2023-05-10T20:52:35;13.40;99.90
3055;DHT22;1537;52.018;8.542;2023-05-10T20:55:59;13.40;99.90
3055;DHT22;1537;52.018;8.542;2023-05-10T20:59:25;13.40;99.90
3055;DHT22;1537;52.018;8.542;2023-05-10T21:02:48;13.50;99.90
3055;DHT22;1537;52.018;8.542;2023-05-10T21:06:15;13.40;99.90
3055;DHT22;1537;52.018;8.542;2023-05-10T21:09:42;13.30;99.90
3055;DHT22;1537;52.018;8.542;2023-05-10T21:13:06;13.30;99.90
3055;DHT22;1537;52.018;8.542;2023-05-10T21:16:32;13.30;99.90
3055;DHT22;1537;52.018;8.542;2023-05-10T21:19:58;13.30;99.90
3055;DHT22;1537;52.018;8.542;2023-05-10T21:23:23;13.20;99.90
3055;DHT22;1537;52.018;8.542;2023-05-10T21:26:46;13.30;99.90
3055;DHT22;1537;52.018;8.542;2023-05-10T21:30:11;13.40;99.90
3055;DHT22;1537;52.018;8.542;2023-05-10T21:33:37;13.50;99.90
3055;DHT22;1537;52.018;8.542;2023-05-10T21:37:01;13.70;99.90
3055;DHT22;1537;52.018;8.542;2023-05-10T21:40:25;13.70;99.90
3055;DHT22;1537;52.018;8.542;2023-05-10T21:43:54;13.90;99.90
3055;DHT22;1537;52.018;8.542;2023-05-10T21:47:18;13.90;99.90
3055;DHT22;1537;52.018;8.542;2023-05-10T21:50:44;13.90;99.90
3055;DHT22;1537;52.018;8.542;2023-05-10T21:54:10;14.00;99.90
3055;DHT22;1537;52.018;8.542;2023-05-10T21:57:34;14.00;99.90
3055;DHT22;1537;52.018;8.542;2023-05-10T22:00:59;13.90;99.90
3055;DHT22;1537;52.018;8.542;2023-05-10T22:04:24;13.90;99.90
3055;DHT22;1537;52.018;8.542;2023-05-10T22:07:49;14.00;99.90
3055;DHT22;1537;52.018;8.542;2023-05-10T22:11:14;14.00;99.90
3055;DHT22;1537;52.018;8.542;2023-05-10T22:14:38;14.00;99.90
3055;DHT22;1537;52.018;8.542;2023-05-10T22:18:02;14.00;99.90
3055;DHT22;1537;52.018;8.542;2023-05-10T22:21:26;14.00;99.90
3055;DHT22;1537;52.018;8.542;2023-05-10T22:24:51;14.00;99.90
3055;DHT22;1537;52.018;8.542;2023-05-10T22:28:15;13.90;99.90